createdAt,value
2019-05-16T00:00:19.281Z,7.07
2019-05-16T00:05:51.463Z,7.60
2019-05-16T00:08:19.155Z,6.77
2019-05-16T00:10:53.948Z,7.37
2019-05-16T00:13:29.576Z,5.80
2019-05-16T00:16:04.631Z,5.53
2019-05-16T00:18:39.636Z,7.70
2019-05-16T00:21:14.994Z,5.93
2019-05-16T00:23:50.401Z,5.77
2019-05-16T00:26:25.368Z,5.13
2019-05-16T00:29:00.719Z,5.53
2019-05-16T00:31:38.057Z,4.77
2019-05-16T00:34:12.373Z,4.77
2019-05-16T00:36:48.784Z,5.43
2019-05-16T00:39:23.378Z,4.80
2019-05-16T00:41:58.429Z,4.50
2019-05-16T00:48:02.400Z,3.90
2019-05-16T00:50:38.761Z,4.13
2019-05-16T00:53:14.764Z,2.93
2019-05-16T00:55:49.822Z,3.30
2019-05-16T00:58:25.521Z,2.97
2019-05-16T01:01:00.996Z,2.77
2019-05-16T01:03:37.670Z,2.87
2019-05-16T01:06:19.220Z,3.90
2019-05-16T01:08:48.785Z,7.27
2019-05-16T01:11:24.148Z,3.63
2019-05-16T01:13:58.958Z,5.90
2019-05-16T01:16:34.343Z,3.47
2019-05-16T01:19:09.172Z,3.67
2019-05-16T01:21:44.309Z,4.50
2019-05-16T01:24:19.173Z,3.30
2019-05-16T01:26:54.692Z,6.23
2019-05-16T01:29:30.555Z,4.17
2019-05-16T01:32:08.248Z,4.03
2019-05-16T01:34:42.237Z,4.57
2019-05-16T01:37:18.567Z,4.70
2019-05-16T01:40:08.023Z,3.47
2019-05-16T01:42:41.950Z,2.90
2019-05-16T01:45:18.722Z,2.00
2019-05-16T01:47:53.370Z,2.10
2019-05-16T01:50:28.545Z,2.57
2019-05-16T01:53:03.473Z,4.63
2019-05-16T01:55:38.462Z,3.17
2019-05-16T01:58:13.760Z,3.17
2019-05-16T02:00:58.736Z,3.43
2019-05-16T02:03:25.144Z,2.80
2019-05-16T02:06:00.910Z,2.53
2019-05-16T02:08:37.906Z,2.17
2019-05-16T02:11:12.368Z,2.53
2019-05-16T02:13:48.450Z,4.10
2019-05-16T02:16:23.546Z,3.30
2019-05-16T02:18:58.918Z,4.43
2019-05-16T02:21:34.060Z,3.43
2019-05-16T02:24:14.011Z,2.53
2019-05-16T02:26:52.043Z,2.60
2019-05-16T02:29:24.540Z,2.30
2019-05-16T02:32:05.303Z,2.20
2019-05-16T02:34:41.933Z,1.73
2019-05-16T02:37:24.084Z,2.00
2019-05-16T02:39:54.643Z,2.20
2019-05-16T02:42:31.118Z,2.13
2019-05-16T02:45:06.001Z,2.37
2019-05-16T02:47:42.540Z,2.13
2019-05-16T02:50:17.927Z,2.20
2019-05-16T02:52:53.949Z,2.20
2019-05-16T02:55:30.840Z,1.70
2019-05-16T02:58:05.207Z,1.83
2019-05-16T03:00:43.335Z,2.40
2019-05-16T03:03:20.999Z,3.00
2019-05-16T03:05:55.522Z,1.97
2019-05-16T03:08:32.007Z,1.80
2019-05-16T03:11:07.392Z,1.43
2019-05-16T03:13:44.596Z,2.13
2019-05-16T03:16:22.228Z,1.77
2019-05-16T03:19:01.027Z,1.20
2019-05-16T03:21:36.308Z,1.40
2019-05-16T03:24:11.510Z,1.33
2019-05-16T03:26:51.513Z,1.47
2019-05-16T03:29:27.467Z,1.03
2019-05-16T03:32:03.635Z,1.10
2019-05-16T03:34:43.363Z,1.30
2019-05-16T03:37:15.173Z,1.40
2019-05-16T03:39:51.438Z,1.83
2019-05-16T03:42:31.098Z,1.07
2019-05-16T03:45:02.765Z,1.00
2019-05-16T03:47:37.801Z,3.13
2019-05-16T03:50:21.844Z,1.60
2019-05-16T03:52:56.143Z,1.60
2019-05-16T03:55:32.974Z,1.00
2019-05-16T03:58:07.251Z,1.50
2019-05-16T04:00:55.480Z,1.17
2019-05-16T04:03:33.246Z,1.57
2019-05-16T04:06:07.425Z,1.93
2019-05-16T04:08:42.289Z,1.17
2019-05-16T04:11:22.188Z,1.23
2019-05-16T04:13:53.214Z,1.27
2019-05-16T04:16:31.063Z,1.10
2019-05-16T04:19:04.483Z,1.77
2019-05-16T04:21:42.200Z,1.40
2019-05-16T04:24:17.111Z,1.63
2019-05-16T04:26:52.141Z,1.10
2019-05-16T04:29:26.965Z,1.27
2019-05-16T04:32:02.085Z,1.20
2019-05-16T04:34:36.826Z,1.40
2019-05-16T04:37:12.153Z,0.97
2019-05-16T04:39:50.605Z,1.63
2019-05-16T04:42:25.808Z,1.80
2019-05-16T04:45:01.793Z,1.50
2019-05-16T04:47:37.169Z,0.97
2019-05-16T04:50:12.425Z,1.60
2019-05-16T04:52:47.857Z,1.20
2019-05-16T04:55:22.536Z,1.10
2019-05-16T04:58:01.447Z,2.47
2019-05-16T05:00:37.659Z,1.20
2019-05-16T05:03:12.784Z,0.87
2019-05-16T05:05:50.872Z,14.40
2019-05-16T05:08:24.123Z,1.77
2019-05-16T05:11:01.376Z,1.70
2019-05-16T05:13:35.180Z,1.07
2019-05-16T05:16:10.666Z,0.90
2019-05-16T05:18:45.749Z,1.10
2019-05-16T05:21:21.078Z,1.10
2019-05-16T05:23:56.618Z,1.93
2019-05-16T05:26:32.062Z,1.20
2019-05-16T05:29:07.037Z,4.00
2019-05-16T05:31:44.549Z,1.50
2019-05-16T05:34:19.769Z,1.43
2019-05-16T05:36:59.861Z,1.40
2019-05-16T05:39:39.683Z,1.00
2019-05-16T05:42:16.238Z,7.13
2019-05-16T05:44:54.067Z,3.00
2019-05-16T05:47:33.396Z,1.30
2019-05-16T05:50:12.783Z,1.20
2019-05-16T05:52:51.026Z,1.00
2019-05-16T05:55:24.834Z,0.90
2019-05-16T05:58:01.015Z,1.20
2019-05-16T06:00:36.134Z,1.00
2019-05-16T06:03:11.615Z,1.30
2019-05-16T06:05:46.487Z,1.07
2019-05-16T06:08:30.620Z,1.10
2019-05-16T06:11:05.269Z,1.10
2019-05-16T06:13:40.852Z,1.27
2019-05-16T06:16:15.635Z,0.90
2019-05-16T06:18:50.999Z,0.90
2019-05-16T06:21:25.704Z,1.10
2019-05-16T06:24:01.204Z,1.10
2019-05-16T06:26:35.991Z,1.10
2019-05-16T06:29:11.753Z,1.90
2019-05-16T06:31:49.533Z,1.53
2019-05-16T06:34:29.785Z,1.10
2019-05-16T06:37:04.291Z,2.40
2019-05-16T06:39:45.056Z,1.20
2019-05-16T06:42:15.741Z,1.13
2019-05-16T06:44:51.262Z,1.30
2019-05-16T06:47:26.136Z,1.73
2019-05-16T06:50:01.539Z,1.57
2019-05-16T06:52:37.092Z,1.40
2019-05-16T06:55:13.072Z,1.47
2019-05-16T06:57:50.117Z,1.40
2019-05-16T07:00:24.117Z,1.50
2019-05-16T07:03:00.382Z,1.73
2019-05-16T07:05:35.088Z,2.23
2019-05-16T07:08:11.021Z,1.70
2019-05-16T07:10:47.054Z,1.77
2019-05-16T07:13:22.744Z,1.70
2019-05-16T07:15:57.527Z,1.20
2019-05-16T07:18:35.577Z,2.07
2019-05-16T07:21:31.311Z,1.73
2019-05-16T07:24:06.538Z,1.70
2019-05-16T07:26:41.635Z,1.80
2019-05-16T07:29:16.696Z,1.97
2019-05-16T07:31:52.473Z,2.00
2019-05-16T07:34:27.413Z,2.33
2019-05-16T07:37:02.356Z,1.70
2019-05-16T07:39:38.657Z,2.53
2019-05-16T07:42:14.109Z,1.90
2019-05-16T07:44:50.525Z,1.97
2019-05-16T07:47:26.259Z,2.00
2019-05-16T07:50:00.985Z,2.40
2019-05-16T07:52:36.672Z,2.23
2019-05-16T07:55:11.833Z,2.63
2019-05-16T07:57:46.904Z,2.20
2019-05-16T08:00:40.742Z,1.90
2019-05-16T08:03:00.010Z,1.43
2019-05-16T08:05:35.061Z,2.30
2019-05-16T08:08:13.784Z,1.67
2019-05-16T08:10:50.847Z,2.80
2019-05-16T08:13:27.245Z,3.20
2019-05-16T08:16:01.911Z,2.33
2019-05-16T08:18:37.057Z,2.37
2019-05-16T08:21:16.650Z,1.80
2019-05-16T08:23:50.074Z,2.27
2019-05-16T08:26:24.052Z,2.03
2019-05-16T08:29:02.088Z,2.87
2019-05-16T08:31:35.145Z,2.20
2019-05-16T08:34:12.240Z,1.80
2019-05-16T08:36:46.193Z,1.63
2019-05-16T08:39:21.488Z,2.00
2019-05-16T08:42:03.351Z,2.33
2019-05-16T08:44:32.971Z,2.80
2019-05-16T08:47:11.583Z,2.37
2019-05-16T08:49:46.991Z,1.80
2019-05-16T08:54:59.660Z,2.50
2019-05-16T08:57:37.186Z,2.27
2019-05-16T09:00:15.195Z,2.47
2019-05-16T09:02:55.969Z,2.37
2019-05-16T09:05:31.545Z,2.90
2019-05-16T09:08:08.519Z,2.67
2019-05-16T09:10:31.816Z,1.70
2019-05-16T09:10:51.400Z,3.10
2019-05-16T09:13:19.598Z,3.30
2019-05-16T09:15:57.079Z,3.13
2019-05-16T09:18:40.559Z,3.43
2019-05-16T09:21:08.320Z,4.30
2019-05-16T09:23:46.971Z,2.80
2019-05-16T09:26:21.273Z,2.67
2019-05-16T09:28:57.482Z,6.53
2019-05-16T09:31:32.517Z,6.50
2019-05-16T09:34:10.523Z,4.03
2019-05-16T09:36:48.073Z,2.80
2019-05-16T09:39:21.963Z,3.37
2019-05-16T09:41:58.665Z,3.40
2019-05-16T09:44:33.371Z,3.77
2019-05-16T09:47:09.853Z,2.80
2019-05-16T09:49:47.340Z,5.70
2019-05-16T09:52:21.342Z,9.13
2019-05-16T09:54:57.796Z,5.10
2019-05-16T09:57:32.793Z,3.87
2019-05-16T10:00:12.038Z,4.53
2019-05-16T10:02:47.622Z,3.70
2019-05-16T10:05:26.398Z,4.80
2019-05-16T10:07:59.861Z,5.00
2019-05-16T10:10:36.806Z,5.63
2019-05-16T10:13:11.118Z,4.57
2019-05-16T10:15:47.215Z,5.50
2019-05-16T10:18:22.975Z,5.27
2019-05-16T10:20:59.282Z,10.23
2019-05-16T10:23:36.276Z,6.03
2019-05-16T10:26:10.542Z,6.50
2019-05-16T10:28:46.784Z,6.63
2019-05-16T10:31:22.257Z,6.20
2019-05-16T10:33:58.018Z,6.53
2019-05-16T10:36:34.163Z,6.37
2019-05-16T10:39:09.933Z,7.30
2019-05-16T10:41:46.682Z,7.73
2019-05-16T10:44:22.295Z,8.47
2019-05-16T10:46:58.158Z,7.67
2019-05-16T10:49:38.788Z,8.20
2019-05-16T10:52:11.977Z,9.07
2019-05-16T10:54:57.647Z,9.70
2019-05-16T10:57:29.397Z,8.77
2019-05-16T11:00:12.549Z,9.97
2019-05-16T11:02:42.740Z,9.73
2019-05-16T11:05:30.043Z,8.97
2019-05-16T11:07:58.098Z,10.40
2019-05-16T11:10:34.349Z,11.23
2019-05-16T11:13:10.541Z,9.90
2019-05-16T11:15:45.782Z,10.63
2019-05-16T11:18:41.211Z,10.37
2019-05-16T11:21:19.142Z,9.47
2019-05-16T11:23:56.430Z,9.37
2019-05-16T11:26:31.877Z,10.20
2019-05-16T11:29:08.560Z,9.63
2019-05-16T11:31:48.517Z,11.53
2019-05-16T11:34:27.649Z,10.10
2019-05-16T11:37:06.638Z,12.57
2019-05-16T11:39:43.744Z,11.90
2019-05-16T11:42:18.828Z,11.97
2019-05-16T11:44:54.194Z,12.13
2019-05-16T11:47:29.325Z,12.07
2019-05-16T11:50:07.210Z,12.67
2019-05-16T11:52:41.579Z,11.60
2019-05-16T11:55:17.060Z,11.40
2019-05-16T11:57:52.315Z,12.33
2019-05-16T12:00:30.592Z,12.33
2019-05-16T12:03:05.422Z,10.80
2019-05-16T12:05:40.937Z,10.13
2019-05-16T12:08:18.739Z,10.77
2019-05-16T12:10:53.622Z,9.67
2019-05-16T12:13:32.646Z,11.03
2019-05-16T12:16:07.273Z,10.07
2019-05-16T12:18:41.148Z,10.90
2019-05-16T12:21:17.249Z,10.00
2019-05-16T12:23:52.342Z,9.87
2019-05-16T12:26:30.203Z,9.70
2019-05-16T12:29:06.851Z,9.97
2019-05-16T12:31:57.218Z,9.20
2019-05-16T12:34:20.746Z,10.10
2019-05-16T12:37:03.667Z,10.80
2019-05-16T12:39:38.738Z,10.97
2019-05-16T12:42:14.883Z,10.37
2019-05-16T12:44:51.202Z,10.23
2019-05-16T12:47:26.300Z,10.67
2019-05-16T12:50:03.160Z,11.37
2019-05-16T12:52:40.022Z,11.50
2019-05-16T12:55:16.573Z,11.13
2019-05-16T12:57:58.897Z,11.00
2019-05-16T13:00:28.363Z,13.07
2019-05-16T13:03:03.404Z,11.77
2019-05-16T13:05:38.376Z,11.13
2019-05-16T13:08:17.231Z,9.87
2019-05-16T13:10:50.860Z,10.30
2019-05-16T13:13:27.814Z,10.30
2019-05-16T13:16:07.287Z,11.10
2019-05-16T13:18:44.304Z,12.40
2019-05-16T13:21:22.169Z,10.03
2019-05-16T13:23:57.530Z,9.23
2019-05-16T13:26:33.249Z,8.43
2019-05-16T13:29:10.078Z,10.17
2019-05-16T13:31:47.633Z,9.80
2019-05-16T13:34:22.512Z,8.70
2019-05-16T13:36:59.697Z,8.23
2019-05-16T13:39:36.256Z,8.47
2019-05-16T13:42:12.530Z,6.87
2019-05-16T13:44:48.855Z,8.13
2019-05-16T13:47:31.124Z,8.50
2019-05-16T13:50:11.541Z,9.33
2019-05-16T13:52:42.782Z,8.73
2019-05-16T13:55:19.540Z,7.40
2019-05-16T13:57:59.661Z,7.30
2019-05-16T14:00:37.634Z,7.57
2019-05-16T14:03:17.909Z,7.20
2019-05-16T14:05:58.023Z,8.23
2019-05-16T14:08:37.989Z,7.10
2019-05-16T14:11:17.859Z,6.93
2019-05-16T14:13:52.345Z,6.80
2019-05-16T14:16:30.239Z,7.20
2019-05-16T14:19:07.534Z,7.90
2019-05-16T14:21:43.347Z,6.53
2019-05-16T14:24:27.940Z,6.87
2019-05-16T14:27:01.571Z,8.57
2019-05-16T14:29:38.711Z,7.53
2019-05-16T14:32:13.715Z,6.60
2019-05-16T14:34:51.479Z,6.70
2019-05-16T14:37:26.831Z,5.93
2019-05-16T14:40:21.380Z,6.37
2019-05-16T14:42:58.280Z,5.70
2019-05-16T14:45:32.862Z,5.17
2019-05-16T14:48:07.984Z,5.60
2019-05-16T14:50:43.516Z,5.63
2019-05-16T14:53:18.785Z,5.20
2019-05-16T14:55:54.332Z,6.03
2019-05-16T14:58:30.789Z,5.80
2019-05-16T15:01:07.367Z,5.73
2019-05-16T15:03:42.178Z,5.73
2019-05-16T15:06:18.170Z,6.27
2019-05-16T15:08:53.385Z,5.67
2019-05-16T15:11:28.357Z,6.83
2019-05-16T15:14:03.761Z,6.97
2019-05-16T15:16:39.409Z,7.00
2019-05-16T15:19:14.453Z,6.70
2019-05-16T15:21:49.806Z,7.17
2019-05-16T15:24:26.833Z,7.60
2019-05-16T15:27:02.396Z,7.03
2019-05-16T15:29:37.902Z,6.67
2019-05-16T15:32:12.809Z,6.27
2019-05-16T15:34:48.580Z,6.30
2019-05-16T15:37:23.420Z,5.97
2019-05-16T15:39:58.787Z,6.40
2019-05-16T15:42:37.011Z,5.97
2019-05-16T15:45:11.890Z,6.20
2019-05-16T15:47:46.952Z,5.50
2019-05-16T15:50:23.070Z,6.13
2019-05-16T15:52:59.219Z,6.27
2019-05-16T15:55:36.198Z,5.77
2019-05-16T15:58:10.860Z,6.33
2019-05-16T16:00:50.306Z,6.10
2019-05-16T16:03:27.033Z,5.60
2019-05-16T16:06:01.978Z,5.83
2019-05-16T16:08:37.366Z,6.13
2019-05-16T16:11:12.602Z,5.93
2019-05-16T16:13:48.484Z,5.60
2019-05-16T16:16:23.576Z,5.53
2019-05-16T16:18:58.637Z,6.20
2019-05-16T16:21:33.467Z,5.33
2019-05-16T16:24:09.287Z,5.60
2019-05-16T16:26:46.919Z,6.17
2019-05-16T16:29:21.385Z,6.67
2019-05-16T16:31:57.011Z,6.87
2019-05-16T16:34:32.341Z,6.30
2019-05-16T16:37:07.535Z,6.43
2019-05-16T16:39:43.038Z,6.57
2019-05-16T16:42:17.961Z,6.77
2019-05-16T16:44:53.879Z,6.30
2019-05-16T16:47:29.368Z,6.53
2019-05-16T16:50:07.419Z,6.47
2019-05-16T16:52:41.673Z,6.10
2019-05-16T16:55:17.208Z,6.73
2019-05-16T16:57:55.725Z,6.10
2019-05-16T17:00:29.116Z,7.17
2019-05-16T17:03:07.216Z,7.43
2019-05-16T17:05:40.250Z,6.47
2019-05-16T17:08:16.839Z,6.90
2019-05-16T17:10:51.520Z,6.80
2019-05-16T17:13:27.532Z,7.23
2019-05-16T17:16:02.866Z,6.50
2019-05-16T17:18:38.787Z,7.50
2019-05-16T17:21:13.913Z,6.40
2019-05-16T17:23:48.842Z,6.73
2019-05-16T17:26:27.214Z,6.37
2019-05-16T17:29:00.297Z,6.40
2019-05-16T17:31:35.096Z,6.83
2019-05-16T17:34:10.731Z,7.47
2019-05-16T17:36:46.622Z,6.47
2019-05-16T17:39:21.491Z,6.40
2019-05-16T17:41:58.025Z,7.03
2019-05-16T17:44:32.800Z,7.37
2019-05-16T17:47:08.474Z,6.33
2019-05-16T17:49:43.722Z,7.63
2019-05-16T17:52:18.715Z,7.20
2019-05-16T17:54:53.697Z,6.67
2019-05-16T17:57:29.303Z,7.23
2019-05-16T18:00:06.558Z,6.27
2019-05-16T18:02:41.495Z,7.13
2019-05-16T18:05:17.255Z,7.37
2019-05-16T18:07:52.348Z,6.50
2019-05-16T18:10:28.242Z,7.23
2019-05-16T18:13:03.168Z,7.00
2019-05-16T18:15:38.455Z,7.27
2019-05-16T18:18:13.428Z,7.00
2019-05-16T18:20:57.896Z,8.07
2019-05-16T18:23:27.286Z,7.07
2019-05-16T18:26:02.157Z,6.70
2019-05-16T18:28:37.627Z,6.60
2019-05-16T18:31:12.462Z,7.27
2019-05-16T18:33:47.890Z,7.10
2019-05-16T18:36:22.824Z,6.70
2019-05-16T18:38:58.025Z,6.80
2019-05-16T18:41:33.448Z,6.80
2019-05-16T18:44:08.797Z,8.13
2019-05-16T18:46:43.725Z,7.43
2019-05-16T18:49:18.558Z,7.03
2019-05-16T18:51:53.372Z,7.63
2019-05-16T18:54:28.480Z,8.57
2019-05-16T18:57:03.867Z,8.03
2019-05-16T18:59:39.643Z,9.03
2019-05-16T19:02:14.548Z,9.00
2019-05-16T19:04:50.114Z,7.60
2019-05-16T19:07:27.217Z,9.13
2019-05-16T19:10:01.400Z,8.97
2019-05-16T19:12:37.111Z,9.37
2019-05-16T19:15:12.833Z,8.90
2019-05-16T19:17:48.166Z,9.00
2019-05-16T19:20:23.385Z,8.77
2019-05-16T19:22:59.126Z,10.30
2019-05-16T19:25:33.987Z,10.40
2019-05-16T19:28:09.363Z,10.50
2019-05-16T19:30:46.395Z,10.93
2019-05-16T19:33:20.355Z,10.60
2019-05-16T19:35:56.553Z,12.30
2019-05-16T19:38:31.472Z,11.67
2019-05-16T19:41:08.131Z,10.83
2019-05-16T19:43:43.418Z,11.00
2019-05-16T19:46:18.357Z,12.80
2019-05-16T19:48:54.205Z,14.60
2019-05-16T19:51:42.363Z,12.77
2019-05-16T19:54:17.658Z,13.73
2019-05-16T19:56:53.560Z,15.90
2019-05-16T19:59:29.472Z,16.03
2019-05-16T20:02:04.246Z,15.20
2019-05-16T20:04:39.363Z,15.10
2019-05-16T20:07:14.128Z,17.00
2019-05-16T20:09:49.236Z,17.30
2019-05-16T20:12:26.184Z,16.37
2019-05-16T20:15:19.960Z,16.87
2019-05-16T20:17:58.370Z,14.90
2019-05-16T20:20:31.281Z,15.60
2019-05-16T20:23:07.184Z,14.80
2019-05-16T20:25:42.164Z,14.47
2019-05-16T20:28:18.414Z,13.93
2019-05-16T20:30:53.382Z,13.17
2019-05-16T20:33:28.319Z,14.10
2019-05-16T20:36:03.525Z,13.87
2019-05-16T20:38:38.689Z,13.70
2019-05-16T20:41:16.873Z,14.33
2019-05-16T20:43:50.823Z,13.70
2019-05-16T20:46:25.918Z,14.10
2019-05-16T20:49:00.808Z,13.43
2019-05-16T20:51:37.614Z,13.13
2019-05-16T20:54:12.999Z,13.93
2019-05-16T20:56:49.504Z,14.57
2019-05-16T20:59:26.538Z,13.97
2019-05-16T21:02:01.007Z,13.50
2019-05-16T21:04:37.420Z,13.67
2019-05-16T21:07:14.432Z,12.90
2019-05-16T21:09:52.549Z,13.00
2019-05-16T21:12:27.742Z,13.00
2019-05-16T21:15:02.625Z,14.37
2019-05-16T21:17:50.816Z,15.23
2019-05-16T21:20:29.577Z,13.80
2019-05-16T21:23:02.271Z,14.73
2019-05-16T21:25:37.276Z,13.70
2019-05-16T21:28:13.103Z,14.63
2019-05-16T21:30:48.501Z,26.60
2019-05-16T21:33:23.819Z,14.57
2019-05-16T21:35:58.616Z,14.20
2019-05-16T21:38:33.612Z,15.70
2019-05-16T21:41:08.420Z,14.07
2019-05-16T21:43:46.821Z,12.67
2019-05-16T21:46:20.514Z,14.10
2019-05-16T21:48:56.728Z,13.27
2019-05-16T21:51:32.459Z,13.13
2019-05-16T21:54:07.440Z,14.03
2019-05-16T21:56:43.163Z,12.67
2019-05-16T21:59:18.374Z,12.37
2019-05-16T22:01:56.471Z,11.83
2019-05-16T22:04:30.240Z,11.60
2019-05-16T22:07:07.209Z,11.77
2019-05-16T22:09:42.776Z,11.10
2019-05-16T22:12:17.694Z,11.73
2019-05-16T22:14:56.959Z,12.27
2019-05-16T22:17:30.891Z,12.17
2019-05-16T22:20:07.043Z,12.07
2019-05-16T22:22:42.435Z,10.90
2019-05-16T22:25:17.698Z,11.47
2019-05-16T22:27:52.741Z,11.83
2019-05-16T22:30:27.555Z,11.33
2019-05-16T22:33:02.961Z,11.63
2019-05-16T22:35:43.173Z,11.93
2019-05-16T22:38:16.817Z,12.03
2019-05-16T22:40:52.080Z,11.47
2019-05-16T22:43:27.725Z,12.00
2019-05-16T22:46:02.759Z,11.37
2019-05-16T22:48:41.850Z,12.27
2019-05-16T22:51:21.360Z,11.77
2019-05-16T22:54:01.538Z,11.13
2019-05-16T22:56:37.910Z,10.63
2019-05-16T22:59:12.826Z,9.70
2019-05-16T23:01:48.196Z,10.10
2019-05-16T23:04:22.975Z,9.63
2019-05-16T23:07:00.580Z,9.07
2019-05-16T23:09:36.605Z,7.57
2019-05-16T23:12:11.587Z,8.77
2019-05-16T23:14:46.956Z,8.50
2019-05-16T23:17:21.810Z,7.37
2019-05-16T23:19:56.935Z,6.63
2019-05-16T23:22:31.916Z,7.30
2019-05-16T23:25:09.039Z,7.53
2019-05-16T23:27:43.924Z,6.53
2019-05-16T23:30:19.514Z,7.00
2019-05-16T23:32:56.175Z,6.80
2019-05-16T23:35:30.365Z,6.50
2019-05-16T23:38:16.505Z,5.50
2019-05-16T23:40:41.724Z,5.83
2019-05-16T23:43:16.716Z,5.97
2019-05-16T23:45:51.764Z,5.70
2019-05-16T23:48:27.889Z,5.23
2019-05-16T23:51:03.089Z,5.07
2019-05-16T23:53:58.036Z,5.27
2019-05-16T23:56:33.047Z,4.97
2019-05-16T23:59:08.143Z,5.57
